createdAt,value
2022-08-03T00:00:30.977Z,24.43
2022-08-03T00:02:58.401Z,24.40
2022-08-03T00:05:25.676Z,24.36
2022-08-03T00:07:53.062Z,24.34
2022-08-03T00:10:20.605Z,24.28
2022-08-03T00:12:47.997Z,24.18
2022-08-03T00:15:16.952Z,24.17
2022-08-03T00:17:53.358Z,24.13
2022-08-03T00:20:22.187Z,24.13
2022-08-03T00:22:50.526Z,24.08
2022-08-03T00:25:19.146Z,24.04
2022-08-03T00:27:47.770Z,24.00
2022-08-03T00:30:16.906Z,23.97
2022-08-03T00:32:45.380Z,23.96
2022-08-03T00:35:25.132Z,23.91
2022-08-03T00:38:00.538Z,23.92
2022-08-03T00:40:28.845Z,23.82
2022-08-03T00:43:00.993Z,23.80
2022-08-03T00:45:39.290Z,23.79
2022-08-03T00:48:29.753Z,23.74
2022-08-03T00:50:57.774Z,23.65
2022-08-03T00:53:25.657Z,23.64
2022-08-03T00:55:53.085Z,23.64
2022-08-03T00:58:20.534Z,23.56
2022-08-03T01:00:48.046Z,23.46
2022-08-03T01:03:15.397Z,23.44
2022-08-03T01:06:25.500Z,23.42
2022-08-03T01:09:30.440Z,23.41
2022-08-03T01:12:35.387Z,23.35
2022-08-03T01:15:17.724Z,23.31
2022-08-03T01:18:00.372Z,23.25
2022-08-03T01:20:34.488Z,23.25
2022-08-03T01:23:59.757Z,23.25
2022-08-03T01:27:09.557Z,23.34
2022-08-03T01:30:09.610Z,23.29
2022-08-03T01:33:11.604Z,23.23
2022-08-03T01:35:50.936Z,23.24
2022-08-03T01:38:29.089Z,23.28
2022-08-03T01:40:57.918Z,23.31
2022-08-03T01:44:28.397Z,23.28
2022-08-03T01:46:20.602Z,23.19
2022-08-03T01:48:49.637Z,23.15
2022-08-03T01:51:21.106Z,23.10
2022-08-03T01:53:52.210Z,23.03
2022-08-03T01:56:22.569Z,23.02
2022-08-03T01:58:52.032Z,23.08
2022-08-03T02:01:22.979Z,23.05
2022-08-03T02:03:59.945Z,22.99
2022-08-03T02:07:02.355Z,22.95
2022-08-03T02:09:23.877Z,22.94
2022-08-03T02:11:53.381Z,22.97
2022-08-03T02:14:22.261Z,22.97
2022-08-03T02:16:51.650Z,22.92
2022-08-03T02:19:19.731Z,22.89
2022-08-03T02:21:57.494Z,22.85
2022-08-03T02:24:30.098Z,22.85
2022-08-03T02:26:59.346Z,22.84
2022-08-03T02:29:39.142Z,22.85
2022-08-03T02:32:16.307Z,22.83
2022-08-03T02:34:50.934Z,22.87
2022-08-03T02:37:20.638Z,22.86
2022-08-03T02:39:53.271Z,22.88
2022-08-03T02:42:23.488Z,22.83
2022-08-03T02:44:53.498Z,22.77
2022-08-03T02:47:21.442Z,22.78
2022-08-03T02:49:52.407Z,22.76
2022-08-03T02:52:28.561Z,22.74
2022-08-03T02:55:01.144Z,22.71
2022-08-03T02:57:31.744Z,22.67
2022-08-03T03:00:01.654Z,22.65
2022-08-03T03:02:30.077Z,22.68
2022-08-03T03:05:55.376Z,22.67
2022-08-03T03:07:51.939Z,22.62
2022-08-03T03:10:24.986Z,22.56
2022-08-03T03:12:58.027Z,22.53
2022-08-03T03:15:28.154Z,22.50
2022-08-03T03:17:56.500Z,22.47
2022-08-03T03:20:29.609Z,22.39
2022-08-03T03:23:01.352Z,22.37
2022-08-03T03:25:32.661Z,22.38
2022-08-03T03:28:02.286Z,22.35
2022-08-03T03:30:30.612Z,22.35
2022-08-03T03:32:59.299Z,22.31
2022-08-03T03:35:28.222Z,22.33
2022-08-03T03:37:56.723Z,22.32
2022-08-03T03:40:24.830Z,22.29
2022-08-03T03:42:52.278Z,22.29
2022-08-03T03:45:21.939Z,22.22
2022-08-03T03:47:50.153Z,22.11
2022-08-03T03:50:19.373Z,22.03
2022-08-03T03:52:47.025Z,22.07
2022-08-03T03:55:18.860Z,22.07
2022-08-03T03:57:46.476Z,22.00
2022-08-03T04:00:17.160Z,21.93
2022-08-03T04:02:46.346Z,21.89
2022-08-03T04:05:33.549Z,21.91
2022-08-03T04:08:29.242Z,21.94
2022-08-03T04:11:29.129Z,21.97
2022-08-03T04:14:09.987Z,22.00
2022-08-03T04:16:43.931Z,21.97
2022-08-03T04:19:23.356Z,21.96
2022-08-03T04:21:57.172Z,21.94
2022-08-03T04:24:31.557Z,21.94
2022-08-03T04:27:01.475Z,21.89
2022-08-03T04:29:33.352Z,21.91
2022-08-03T04:32:03.189Z,21.90
2022-08-03T04:34:31.187Z,21.96
2022-08-03T04:37:02.962Z,21.99
2022-08-03T04:39:32.900Z,22.00
2022-08-03T04:42:07.999Z,22.05
2022-08-03T04:44:42.925Z,22.13
2022-08-03T04:47:10.400Z,22.25
2022-08-03T04:49:38.775Z,22.29
2022-08-03T04:52:09.984Z,22.33
2022-08-03T04:54:50.352Z,22.37
2022-08-03T04:57:23.305Z,22.42
2022-08-03T05:00:02.034Z,22.47
2022-08-03T05:02:32.211Z,22.46
2022-08-03T05:05:00.752Z,22.43
2022-08-03T05:07:35.621Z,22.48
2022-08-03T05:10:16.488Z,22.57
2022-08-03T05:12:47.618Z,22.65
2022-08-03T05:15:15.875Z,22.71
2022-08-03T05:17:43.193Z,22.78
2022-08-03T05:20:11.480Z,22.86
2022-08-03T05:22:38.668Z,22.88
2022-08-03T05:25:06.523Z,22.88
2022-08-03T05:27:33.745Z,22.91
2022-08-03T05:30:31.467Z,22.92
2022-08-03T05:32:50.342Z,22.92
2022-08-03T05:36:00.477Z,23.02
2022-08-03T05:38:06.036Z,23.11
2022-08-03T05:40:36.697Z,23.16
2022-08-03T05:43:04.694Z,23.26
2022-08-03T05:45:32.016Z,23.34
2022-08-03T05:47:59.435Z,23.37
2022-08-03T05:50:26.864Z,23.45
2022-08-03T05:52:57.806Z,23.47
2022-08-03T05:55:25.824Z,23.51
2022-08-03T05:57:53.156Z,23.63
2022-08-03T06:00:24.343Z,23.69
2022-08-03T06:02:53.150Z,23.79
2022-08-03T06:05:20.611Z,23.94
2022-08-03T06:07:47.946Z,24.02
2022-08-03T06:10:35.404Z,24.02
2022-08-03T06:13:02.670Z,24.13
2022-08-03T06:15:30.758Z,24.20
2022-08-03T06:18:01.787Z,24.31
2022-08-03T06:20:30.149Z,24.39
2022-08-03T06:23:00.775Z,24.49
2022-08-03T06:25:29.358Z,24.54
2022-08-03T06:27:57.093Z,24.61
2022-08-03T06:30:24.701Z,24.74
2022-08-03T06:32:52.560Z,24.88
2022-08-03T06:35:20.354Z,25.05
2022-08-03T06:37:51.640Z,25.13
2022-08-03T06:40:29.630Z,25.21
2022-08-03T06:42:59.364Z,25.31
2022-08-03T06:45:31.790Z,25.36
2022-08-03T06:48:09.822Z,25.41
2022-08-03T06:50:41.673Z,25.51
2022-08-03T06:53:10.366Z,25.70
2022-08-03T06:55:51.130Z,25.82
2022-08-03T06:58:21.300Z,25.88
2022-08-03T07:00:48.554Z,26.02
2022-08-03T07:03:16.642Z,26.04
2022-08-03T07:05:47.840Z,26.09
2022-08-03T07:08:15.667Z,26.12
2022-08-03T07:10:44.192Z,26.21
2022-08-03T07:13:12.265Z,26.28
2022-08-03T07:15:55.490Z,26.24
2022-08-03T07:18:29.960Z,26.27
2022-08-03T07:20:58.607Z,26.36
2022-08-03T07:23:25.942Z,26.39
2022-08-03T07:25:53.537Z,26.40
2022-08-03T07:28:21.213Z,26.52
2022-08-03T07:30:48.921Z,26.58
2022-08-03T07:33:16.214Z,26.59
2022-08-03T07:35:43.541Z,26.58
2022-08-03T07:38:11.107Z,26.62
2022-08-03T07:40:40.985Z,26.71
2022-08-03T07:43:11.927Z,26.77
2022-08-03T07:45:39.153Z,26.85
2022-08-03T07:48:11.926Z,26.95
2022-08-03T07:50:40.526Z,27.00
2022-08-03T07:53:07.880Z,27.06
2022-08-03T07:55:35.292Z,27.07
2022-08-03T07:58:16.528Z,27.12
2022-08-03T08:00:46.711Z,27.08
2022-08-03T08:03:14.069Z,27.12
2022-08-03T08:05:41.493Z,27.24
2022-08-03T08:08:08.766Z,27.31
2022-08-03T08:10:36.734Z,27.45
2022-08-03T08:13:05.286Z,27.45
2022-08-03T08:15:32.965Z,27.40
2022-08-03T08:18:02.439Z,27.54
2022-08-03T08:20:38.013Z,27.64
2022-08-03T08:23:22.934Z,27.73
2022-08-03T08:25:56.248Z,27.72
2022-08-03T08:28:32.266Z,27.73
2022-08-03T08:31:02.011Z,27.78
2022-08-03T08:33:48.095Z,27.82
2022-08-03T08:36:17.989Z,27.98
2022-08-03T08:38:45.764Z,28.02
2022-08-03T08:41:15.156Z,27.97
2022-08-03T08:43:43.397Z,28.03
2022-08-03T08:46:22.872Z,27.96
2022-08-03T08:48:53.585Z,28.09
2022-08-03T08:51:22.620Z,28.15
2022-08-03T08:53:54.503Z,28.04
2022-08-03T08:56:26.036Z,27.86
2022-08-03T08:59:01.510Z,28.08
2022-08-03T09:01:31.154Z,28.33
2022-08-03T09:03:58.428Z,28.43
2022-08-03T09:06:25.828Z,28.53
2022-08-03T09:08:54.209Z,28.60
2022-08-03T09:11:52.369Z,28.69
2022-08-03T09:14:34.382Z,28.78
2022-08-03T09:17:02.702Z,28.81
2022-08-03T09:19:32.609Z,28.85
2022-08-03T09:22:17.475Z,28.92
2022-08-03T09:25:24.257Z,28.90
2022-08-03T09:27:52.429Z,29.01
2022-08-03T09:30:34.611Z,29.07
2022-08-03T09:33:09.278Z,28.92
2022-08-03T09:35:54.203Z,28.89
2022-08-03T09:38:28.220Z,28.82
2022-08-03T09:41:00.205Z,28.99
2022-08-03T09:43:28.698Z,29.14
2022-08-03T09:46:07.354Z,29.28
2022-08-03T09:48:35.755Z,29.12
2022-08-03T09:51:13.424Z,28.90
2022-08-03T09:53:57.043Z,29.00
2022-08-03T09:56:45.993Z,29.25
2022-08-03T09:59:31.145Z,29.23
2022-08-03T10:02:02.590Z,29.37
2022-08-03T10:04:30.047Z,29.53
2022-08-03T10:07:11.205Z,29.48
2022-08-03T10:09:38.786Z,29.63
2022-08-03T10:12:13.936Z,29.11
2022-08-03T10:14:45.531Z,29.15
2022-08-03T10:17:13.190Z,29.59
2022-08-03T10:19:41.507Z,29.77
2022-08-03T10:22:24.704Z,29.95
2022-08-03T10:25:13.607Z,29.86
2022-08-03T10:27:47.640Z,29.50
2022-08-03T10:30:15.405Z,30.00
2022-08-03T10:32:52.551Z,30.15
2022-08-03T10:35:23.400Z,30.29
2022-08-03T10:38:00.645Z,30.30
2022-08-03T10:40:48.236Z,30.55
2022-08-03T10:43:23.129Z,30.53
2022-08-03T10:45:51.883Z,30.63
2022-08-03T10:48:20.806Z,30.83
2022-08-03T10:50:50.649Z,30.83
2022-08-03T10:53:47.091Z,30.91
2022-08-03T10:56:52.170Z,30.93
2022-08-03T10:59:46.035Z,30.91
2022-08-03T11:02:17.948Z,30.83
2022-08-03T11:04:45.257Z,30.94
2022-08-03T11:07:25.792Z,31.21
2022-08-03T11:09:56.536Z,30.83
2022-08-03T11:12:33.017Z,30.91
2022-08-03T11:15:08.567Z,31.12
2022-08-03T11:17:46.136Z,31.35
2022-08-03T11:20:54.829Z,31.32
2022-08-03T11:24:04.859Z,31.24
2022-08-03T11:26:34.662Z,31.23
2022-08-03T11:29:29.402Z,31.44
2022-08-03T11:31:57.286Z,31.79
2022-08-03T11:34:24.961Z,31.70
2022-08-03T11:37:28.728Z,31.42
2022-08-03T11:39:57.424Z,31.50
2022-08-03T11:42:24.607Z,31.65
2022-08-03T11:45:00.627Z,31.72
2022-08-03T11:47:30.119Z,30.67
2022-08-03T11:50:02.003Z,31.04
2022-08-03T11:52:38.058Z,31.68
2022-08-03T11:55:11.962Z,31.94
2022-08-03T11:58:58.357Z,31.79
2022-08-03T12:00:33.008Z,31.61
2022-08-03T12:03:05.589Z,31.42
2022-08-03T12:05:52.269Z,31.22
2022-08-03T12:08:32.661Z,31.58
2022-08-03T12:11:07.230Z,32.09
2022-08-03T12:14:26.989Z,32.28
2022-08-03T12:16:32.647Z,32.62
2022-08-03T12:19:06.734Z,32.70
2022-08-03T12:21:34.333Z,32.71
2022-08-03T12:24:04.847Z,32.76
2022-08-03T12:26:58.474Z,32.76
2022-08-03T12:29:27.059Z,32.97
2022-08-03T12:31:55.956Z,33.00
2022-08-03T12:34:23.700Z,33.26
2022-08-03T12:36:56.261Z,33.49
2022-08-03T12:39:27.484Z,33.63
2022-08-03T12:41:56.825Z,33.66
2022-08-03T12:44:36.229Z,33.88
2022-08-03T12:47:06.586Z,33.96
2022-08-03T12:49:53.083Z,33.86
2022-08-03T12:52:23.051Z,33.84
2022-08-03T12:54:59.836Z,34.08
2022-08-03T12:57:43.596Z,34.43
2022-08-03T13:00:28.744Z,34.27
2022-08-03T13:05:54.916Z,34.04
2022-08-03T13:08:25.374Z,34.31
2022-08-03T13:10:52.788Z,34.80
2022-08-03T13:13:39.625Z,35.06
2022-08-03T13:16:06.863Z,35.08
2022-08-03T13:18:34.210Z,35.91
2022-08-03T13:21:02.278Z,35.94
2022-08-03T13:23:29.910Z,36.93
2022-08-03T13:25:57.202Z,37.56
2022-08-03T13:28:24.441Z,36.92
2022-08-03T13:30:51.720Z,38.20
2022-08-03T13:33:19.154Z,37.20
2022-08-03T13:35:46.361Z,38.82
2022-08-03T13:38:15.325Z,39.92
2022-08-03T13:40:44.754Z,40.15
2022-08-03T13:43:13.391Z,40.31
2022-08-03T13:45:44.634Z,40.47
2022-08-03T13:48:14.837Z,40.64
2022-08-03T13:51:11.991Z,40.89
2022-08-03T13:53:52.409Z,41.62
2022-08-03T13:56:21.202Z,39.38
2022-08-03T13:58:48.403Z,39.11
2022-08-03T14:01:16.310Z,39.92
2022-08-03T14:03:43.673Z,41.05
2022-08-03T14:06:11.006Z,41.89
2022-08-03T14:08:38.307Z,42.45
2022-08-03T14:11:05.621Z,42.41
2022-08-03T14:13:32.926Z,42.62
2022-08-03T14:16:01.793Z,42.97
2022-08-03T14:18:33.490Z,40.35
2022-08-03T14:21:07.138Z,41.46
2022-08-03T14:23:37.954Z,42.66
2022-08-03T14:26:09.537Z,43.15
2022-08-03T14:28:36.953Z,42.37
2022-08-03T14:31:08.491Z,42.33
2022-08-03T14:33:52.888Z,42.63
2022-08-03T14:36:20.184Z,41.67
2022-08-03T14:38:47.870Z,42.01
2022-08-03T14:41:20.164Z,43.31
2022-08-03T14:44:00.549Z,43.67
2022-08-03T14:46:30.750Z,43.11
2022-08-03T14:49:02.621Z,43.67
2022-08-03T14:51:51.426Z,43.55
2022-08-03T14:54:22.628Z,43.27
2022-08-03T14:56:49.942Z,44.12
2022-08-03T14:59:17.125Z,44.36
2022-08-03T15:02:06.262Z,44.07
2022-08-03T15:04:31.730Z,44.24
2022-08-03T15:06:58.892Z,44.82
2022-08-03T15:09:26.185Z,42.13
2022-08-03T15:11:53.712Z,43.45
2022-08-03T15:14:28.266Z,44.48
2022-08-03T15:17:01.126Z,41.13
2022-08-03T15:20:03.301Z,43.94
2022-08-03T15:22:20.481Z,43.88
2022-08-03T15:24:52.262Z,44.29
2022-08-03T15:27:19.779Z,45.40
2022-08-03T15:30:05.653Z,45.51
2022-08-03T15:32:34.860Z,45.54
2022-08-03T15:35:02.303Z,45.59
2022-08-03T15:37:29.541Z,46.28
2022-08-03T15:39:59.622Z,46.48
2022-08-03T15:42:33.232Z,45.60
2022-08-03T15:45:00.725Z,45.95
2022-08-03T15:47:28.090Z,44.72
2022-08-03T15:49:55.463Z,44.47
2022-08-03T15:52:22.758Z,44.16
2022-08-03T15:54:50.225Z,44.63
2022-08-03T15:57:17.701Z,45.04
2022-08-03T15:59:45.123Z,46.33
2022-08-03T16:02:12.554Z,46.60
2022-08-03T16:04:39.823Z,46.06
2022-08-03T16:07:07.078Z,45.46
2022-08-03T16:09:42.069Z,44.96
2022-08-03T16:12:14.466Z,44.37
2022-08-03T16:14:52.941Z,44.35
2022-08-03T16:17:22.222Z,45.33
2022-08-03T16:19:52.223Z,44.84
2022-08-03T16:22:23.781Z,45.20
2022-08-03T16:24:54.226Z,44.98
2022-08-03T16:28:00.489Z,45.32
2022-08-03T16:30:18.437Z,44.57
2022-08-03T16:32:46.115Z,45.17
2022-08-03T16:35:19.710Z,45.28
2022-08-03T16:37:50.713Z,44.73
2022-08-03T16:40:25.093Z,45.17
2022-08-03T16:42:52.313Z,43.89
2022-08-03T16:45:19.604Z,44.12
2022-08-03T16:47:46.923Z,44.78
2022-08-03T16:50:19.893Z,44.00
2022-08-03T16:52:48.430Z,43.47
2022-08-03T16:55:18.410Z,43.92
2022-08-03T16:58:05.532Z,45.23
2022-08-03T17:00:41.620Z,44.76
2022-08-03T17:03:16.395Z,44.89
2022-08-03T17:05:50.016Z,43.13
2022-08-03T17:08:18.900Z,43.20
2022-08-03T17:10:54.016Z,43.85
2022-08-03T17:13:22.721Z,44.14
2022-08-03T17:16:00.687Z,44.23
2022-08-03T17:18:35.210Z,42.89
2022-08-03T17:21:06.647Z,43.05
2022-08-03T17:23:58.432Z,43.19
2022-08-03T17:26:30.317Z,42.47
2022-08-03T17:29:12.888Z,39.22
2022-08-03T17:31:49.596Z,37.49
2022-08-03T17:34:19.398Z,36.79
2022-08-03T17:37:05.492Z,35.96
2022-08-03T17:39:57.632Z,35.37
2022-08-03T17:42:30.494Z,34.45
2022-08-03T17:45:02.173Z,34.44
2022-08-03T17:47:41.973Z,33.88
2022-08-03T17:50:24.410Z,34.05
2022-08-03T17:53:24.374Z,33.85
2022-08-03T17:56:40.749Z,33.92
2022-08-03T17:59:50.652Z,33.43
2022-08-03T18:03:07.008Z,33.10
2022-08-03T18:06:10.642Z,32.96
2022-08-03T18:08:32.521Z,32.70
2022-08-03T18:11:09.670Z,32.72
2022-08-03T18:14:40.411Z,32.60
2022-08-03T18:20:32.360Z,32.28
2022-08-03T18:23:06.944Z,32.18
2022-08-03T18:25:43.070Z,32.11
2022-08-03T18:28:18.648Z,31.80
2022-08-03T18:30:53.123Z,31.50
2022-08-03T18:34:18.819Z,31.42
2022-08-03T18:36:17.663Z,31.42
2022-08-03T18:38:51.816Z,31.36
2022-08-03T18:41:33.672Z,31.36
2022-08-03T18:44:08.427Z,31.31
2022-08-03T18:47:27.174Z,31.25
2022-08-03T18:50:36.731Z,31.09
2022-08-03T18:54:02.790Z,31.12
2022-08-03T18:56:44.303Z,30.88
2022-08-03T18:59:29.947Z,30.71
2022-08-03T19:02:34.828Z,30.63
2022-08-03T19:05:11.037Z,30.62
2022-08-03T19:07:42.265Z,30.59
2022-08-03T19:10:31.155Z,30.46
2022-08-03T19:13:20.110Z,30.18
2022-08-03T19:16:02.528Z,30.04
2022-08-03T19:18:32.783Z,29.93
2022-08-03T19:21:03.364Z,29.76
2022-08-03T19:23:47.338Z,29.61
2022-08-03T19:26:30.172Z,29.48
2022-08-03T19:28:59.203Z,29.33
2022-08-03T19:31:31.106Z,29.29
2022-08-03T19:34:03.964Z,29.30
2022-08-03T19:36:39.537Z,29.12
2022-08-03T19:39:12.721Z,29.01
2022-08-03T19:41:47.234Z,29.07
2022-08-03T19:44:34.241Z,29.08
2022-08-03T19:47:11.771Z,28.96
2022-08-03T19:49:57.735Z,28.90
2022-08-03T19:52:38.228Z,28.75
2022-08-03T19:55:12.513Z,28.73
2022-08-03T19:57:46.944Z,28.80
2022-08-03T20:00:20.005Z,28.81
2022-08-03T20:02:53.704Z,28.75
2022-08-03T20:05:21.102Z,28.67
2022-08-03T20:07:51.013Z,28.61
2022-08-03T20:10:20.079Z,28.55
2022-08-03T20:12:49.530Z,28.35
2022-08-03T20:15:18.080Z,28.23
2022-08-03T20:17:54.570Z,28.13
2022-08-03T20:20:34.866Z,28.04
2022-08-03T20:23:18.875Z,27.95
2022-08-03T20:25:58.810Z,27.93
2022-08-03T20:28:50.301Z,27.90
2022-08-03T20:31:23.973Z,27.87
2022-08-03T20:34:00.610Z,27.84
2022-08-03T20:36:28.290Z,27.94
2022-08-03T20:38:58.177Z,27.96
2022-08-03T20:41:25.994Z,27.91
2022-08-03T20:43:53.365Z,27.87
2022-08-03T20:46:29.063Z,27.79
2022-08-03T20:48:58.877Z,27.61
2022-08-03T20:51:50.183Z,27.70
2022-08-03T20:54:29.201Z,27.69
2022-08-03T20:57:00.528Z,27.61
2022-08-03T20:59:46.975Z,27.54
2022-08-03T21:02:30.231Z,27.41
2022-08-03T21:05:03.526Z,27.36
2022-08-03T21:08:06.282Z,27.28
2022-08-03T21:10:38.011Z,27.22
2022-08-03T21:12:57.498Z,32.53
2022-08-03T21:13:24.176Z,27.06
2022-08-03T21:16:12.178Z,26.92
2022-08-03T21:18:52.178Z,26.94
2022-08-03T21:21:23.245Z,26.98
2022-08-03T21:23:55.181Z,26.92
2022-08-03T21:26:27.144Z,26.84
2022-08-03T21:28:56.979Z,26.72
2022-08-03T21:31:26.791Z,26.64
2022-08-03T21:34:03.894Z,26.65
2022-08-03T21:36:37.640Z,26.58
2022-08-03T21:39:09.449Z,26.58
2022-08-03T21:41:40.252Z,26.62
2022-08-03T21:44:08.681Z,26.63
2022-08-03T21:46:44.268Z,26.63
2022-08-03T21:50:07.080Z,26.60
2022-08-03T21:52:07.215Z,26.60
2022-08-03T21:54:42.462Z,26.63
2022-08-03T21:57:19.349Z,26.64
2022-08-03T22:00:01.929Z,26.70
2022-08-03T22:02:32.017Z,26.69
2022-08-03T22:05:00.014Z,26.69
2022-08-03T22:07:29.235Z,26.71
2022-08-03T22:10:01.965Z,26.67
2022-08-03T22:12:31.676Z,26.63
2022-08-03T22:15:03.154Z,26.61
2022-08-03T22:17:54.554Z,26.56
2022-08-03T22:20:25.424Z,26.50
2022-08-03T22:22:57.018Z,26.45
2022-08-03T22:25:34.881Z,26.41
2022-08-03T22:28:24.696Z,26.38
2022-08-03T22:30:52.404Z,26.38
2022-08-03T22:33:20.090Z,26.37
2022-08-03T22:35:51.593Z,26.39
2022-08-03T22:38:19.280Z,26.39
2022-08-03T22:40:50.794Z,26.37
2022-08-03T22:43:24.104Z,26.36
2022-08-03T22:46:09.132Z,26.36
2022-08-03T22:48:41.421Z,26.33
2022-08-03T22:51:09.948Z,26.31
2022-08-03T22:53:39.213Z,26.21
2022-08-03T22:56:08.747Z,26.14
2022-08-03T22:58:36.132Z,26.07
2022-08-03T23:01:11.887Z,26.04
2022-08-03T23:03:59.943Z,26.04
2022-08-03T23:06:42.572Z,25.94
2022-08-03T23:09:14.134Z,25.94
2022-08-03T23:11:46.125Z,25.90
2022-08-03T23:14:20.585Z,25.89
2022-08-03T23:16:50.590Z,25.89
2022-08-03T23:19:24.983Z,25.88
2022-08-03T23:22:02.860Z,25.86
2022-08-03T23:24:36.183Z,25.85
2022-08-03T23:27:07.319Z,25.83
2022-08-03T23:29:38.045Z,25.73
2022-08-03T23:32:07.116Z,25.70
2022-08-03T23:34:53.688Z,25.69
2022-08-03T23:37:21.763Z,25.63
2022-08-03T23:39:49.577Z,25.52
2022-08-03T23:42:20.045Z,25.47
2022-08-03T23:44:53.660Z,25.40
2022-08-03T23:47:21.174Z,25.37
2022-08-03T23:49:49.857Z,25.41
2022-08-03T23:52:52.655Z,25.49
2022-08-03T23:56:24.340Z,25.48
2022-08-03T23:59:38.674Z,25.48
